Time;durP1;ratioP1;P1;durP2;ratioP2;P2;SDS_P1;SDS_P2;PMS_P1;PMS_P2;Temp;Humidity;BMP_temperature;BMP_pressure;BME280_temperature;BME280_humidity;BME280_pressure;Samples;Min_cycle;Max_cycle;Signal;HPM_P1;HPM_P2
2024/04/06 00:01:20;;;;;;;8.68;3.90;;;;;;;11.35;69.32;100543.09;5047316;28;20036;-81
2024/04/06 00:03:45;;;;;;;7.45;3.20;;;;;;;11.39;69.87;100554.16;5047417;28;20108;-80
2024/04/06 00:06:11;;;;;;;5.45;2.90;;;;;;;11.00;70.28;100551.44;5047655;28;20475;-81
2024/04/06 00:08:36;;;;;;;7.22;3.65;;;;;;;10.34;73.36;100515.03;5048075;28;20021;-80
2024/04/06 00:11:01;;;;;;;8.82;3.50;;;;;;;11.10;71.55;100560.84;5047365;28;20458;-80
2024/04/06 00:13:27;;;;;;;6.93;3.20;;;;;;;11.16;69.76;100520.78;5047926;28;20025;-80
2024/04/06 00:15:52;;;;;;;9.23;3.63;;;;;;;11.39;68.47;100538.16;5047585;28;20036;-80
2024/04/06 00:18:18;;;;;;;8.38;3.10;;;;;;;11.56;67.41;100560.66;5047557;28;20025;-80
2024/04/06 00:20:43;;;;;;;6.57;2.47;;;;;;;11.35;66.27;100511.03;5047760;28;20020;-80
2024/04/06 00:23:08;;;;;;;4.93;2.30;;;;;;;10.62;71.31;100554.81;5047325;28;20104;-80
2024/04/06 00:25:34;;;;;;;6.40;2.60;;;;;;;10.88;71.06;100558.44;5047560;28;20040;-81
2024/04/06 00:27:59;;;;;;;6.88;3.13;;;;;;;10.00;75.39;100567.47;5047417;28;20055;-80
2024/04/06 00:30:25;;;;;;;6.38;3.13;;;;;;;9.58;77.58;100542.78;5047103;28;20076;-80
2024/04/06 00:32:50;;;;;;;7.35;3.22;;;;;;;9.82;77.49;100559.22;5047203;28;20025;-81
2024/04/06 00:35:16;;;;;;;6.65;3.63;;;;;;;10.25;73.88;100545.53;5046183;28;20029;-80
2024/04/06 00:37:42;;;;;;;10.50;3.67;;;;;;;10.56;72.34;100549.44;5047426;28;20068;-80
2024/04/06 00:40:08;;;;;;;7.95;3.88;;;;;;;10.58;72.77;100580.25;5047417;28;20051;-80
2024/04/06 00:42:34;;;;;;;8.63;3.35;;;;;;;10.67;71.23;100564.84;5047259;28;20037;-80
2024/04/06 00:44:59;;;;;;;7.38;3.40;;;;;;;10.52;71.62;100562.41;5060337;28;20040;-80
2024/04/06 00:47:25;;;;;;;8.00;3.65;;;;;;;10.49;71.98;100560.13;5069428;28;20035;-80
2024/04/06 00:49:50;;;;;;;5.57;2.58;;;;;;;10.54;72.05;100579.03;5052523;28;20082;-80
2024/04/06 00:52:16;;;;;;;6.68;2.80;;;;;;;10.71;71.76;100568.75;5050978;28;20033;-80
2024/04/06 00:54:41;;;;;;;7.80;2.72;;;;;;;10.85;70.54;100590.88;5050965;28;20025;-81
2024/04/06 00:57:07;;;;;;;4.88;2.35;;;;;;;10.53;71.03;100552.56;5050630;28;20421;-81
2024/04/06 00:59:37;;;;;;;6.13;2.75;;;;;;;10.68;72.46;100563.00;5051095;28;20025;-80
2024/04/06 01:02:03;;;;;;;6.72;2.80;;;;;;;10.65;72.71;100557.03;5049342;28;20033;-79
2024/04/06 01:04:29;;;;;;;7.22;2.75;;;;;;;10.57;72.68;100554.59;5050544;28;20029;-79
2024/04/06 01:06:56;;;;;;;5.00;2.90;;;;;;;10.48;72.13;100569.16;5050840;28;20546;-79
2024/04/06 01:09:22;;;;;;;7.32;3.22;;;;;;;9.93;76.42;100568.47;5051067;28;20490;-79
2024/04/06 01:11:47;;;;;;;7.45;3.33;;;;;;;9.30;79.25;100560.72;5050635;28;20082;-79
2024/04/06 01:14:13;;;;;;;6.45;3.30;;;;;;;9.68;78.02;100584.19;5053793;28;20020;-79
2024/04/06 01:16:39;;;;;;;7.30;3.15;;;;;;;9.72;76.19;100538.28;5070517;28;20089;-79
2024/04/06 01:19:04;;;;;;;6.65;3.00;;;;;;;9.32;78.06;100522.22;5061672;28;20074;-79
2024/04/06 01:21:30;;;;;;;4.57;3.03;;;;;;;9.05;82.56;100554.03;5050273;28;20037;-80
2024/04/06 01:23:55;;;;;;;7.30;3.83;;;;;;;8.96;82.20;100573.81;5050019;28;20025;-79
2024/04/06 01:26:21;;;;;;;7.88;4.22;;;;;;;8.61;82.37;100573.78;5050276;28;20029;-80
2024/04/06 01:28:47;;;;;;;10.73;5.38;;;;;;;8.11;84.85;100542.88;5048599;28;20486;-80
2024/04/06 01:31:12;;;;;;;9.98;4.90;;;;;;;7.97;88.46;100553.41;5049867;28;20144;-79
2024/04/06 01:33:41;;;;;;;8.30;4.22;;;;;;;8.62;84.41;100545.38;5049978;28;20575;-80
2024/04/06 01:36:07;;;;;;;9.27;3.88;;;;;;;8.63;84.09;100571.78;5049790;28;20409;-79
2024/04/06 01:38:33;;;;;;;7.53;3.72;;;;;;;9.00;80.56;100555.63;5050749;28;20029;-79
2024/04/06 01:40:59;;;;;;;7.85;3.78;;;;;;;8.62;83.54;100527.59;5049753;28;20028;-80
2024/04/06 01:43:25;;;;;;;11.95;4.25;;;;;;;8.48;86.67;100559.56;5049824;28;20021;-80
2024/04/06 01:45:51;;;;;;;6.57;3.70;;;;;;;8.00;86.59;100523.78;5049653;28;20501;-79
2024/04/06 01:48:16;;;;;;;8.90;3.80;;;;;;;8.88;83.39;100536.75;5050277;28;20115;-78
2024/04/06 01:50:41;;;;;;;8.48;3.83;;;;;;;9.38;81.11;100541.91;5049835;28;20033;-80
2024/04/06 01:53:07;;;;;;;9.50;4.57;;;;;;;9.55;79.76;100551.16;5048275;28;20029;-79
2024/04/06 01:55:32;;;;;;;7.72;3.63;;;;;;;9.64;78.27;100552.63;5058896;28;20036;-80
2024/04/06 01:57:57;;;;;;;8.27;3.70;;;;;;;9.52;80.01;100527.63;5069232;28;20059;-79
2024/04/06 02:00:23;;;;;;;7.47;3.80;;;;;;;9.42;80.04;100505.88;5053329;28;20013;-80
2024/04/06 02:02:48;;;;;;;7.05;3.72;;;;;;;9.86;79.39;100541.81;5049766;28;20033;-80
2024/04/06 02:05:14;;;;;;;8.75;4.25;;;;;;;9.74;78.62;100538.09;5049970;28;20103;-79
2024/04/06 02:07:39;;;;;;;6.60;3.78;;;;;;;9.62;79.74;100548.50;5048332;28;20036;-80
2024/04/06 02:10:05;;;;;;;8.65;3.40;;;;;;;9.54;80.49;100565.50;5050240;28;20047;-80
2024/04/06 02:12:30;;;;;;;9.77;3.55;;;;;;;9.32;80.90;100526.72;5049566;28;20033;-79
2024/04/06 02:14:56;;;;;;;6.30;3.42;;;;;;;9.41;81.19;100538.81;5049165;28;20033;-80
2024/04/06 02:17:21;;;;;;;6.93;3.47;;;;;;;9.32;79.78;100516.91;5049283;28;20048;-79
2024/04/06 02:19:47;;;;;;;8.68;3.80;;;;;;;9.55;80.13;100559.16;5049923;28;20013;-79
2024/04/06 02:22:12;;;;;;;7.72;3.50;;;;;;;9.40;79.53;100529.22;5049321;28;20051;-79
2024/04/06 02:24:38;;;;;;;7.90;3.20;;;;;;;9.15;81.01;100556.31;5049221;28;20032;-80
2024/04/06 02:27:03;;;;;;;6.05;2.80;;;;;;;9.02;80.41;100535.78;5049427;28;20043;-80
2024/04/06 02:29:30;;;;;;;6.60;2.55;;;;;;;9.24;80.28;100543.69;5048654;28;20036;-80
2024/04/06 02:31:57;;;;;;;5.18;2.13;;;;;;;8.52;82.99;100505.00;5049034;28;20025;-79
2024/04/06 02:34:22;;;;;;;5.80;3.15;;;;;;;8.95;84.22;100558.06;5047548;28;20503;-79
2024/04/06 02:36:48;;;;;;;4.68;2.47;;;;;;;9.46;80.36;100557.69;5048480;28;20036;-79
2024/04/06 02:39:14;;;;;;;7.30;2.50;;;;;;;9.74;78.13;100564.72;5047673;28;20534;-80
2024/04/06 02:41:40;;;;;;;4.38;2.30;;;;;;;9.36;78.08;100565.25;5029725;28;20121;-79
2024/04/06 02:44:05;;;;;;;3.67;2.28;;;;;;;9.54;77.44;100546.88;5048636;28;20024;-78
2024/04/06 02:46:31;;;;;;;4.75;2.30;;;;;;;9.45;79.01;100556.84;5048904;28;20056;-79
2024/04/06 02:48:56;;;;;;;4.45;2.28;;;;;;;9.43;78.19;100534.13;5047581;28;20029;-79
2024/04/06 02:51:24;;;;;;;4.80;2.17;;;;;;;9.05;80.72;100535.41;5048598;28;20032;-79
2024/04/06 02:53:50;;;;;;;4.05;2.20;;;;;;;8.32;85.08;100497.72;5047442;28;20044;-79
2024/04/06 02:56:16;;;;;;;5.60;2.15;;;;;;;9.03;82.81;100542.78;5054161;28;20034;-79
2024/04/06 02:58:42;;;;;;;4.50;2.10;;;;;;;8.58;84.16;100533.47;5068569;28;20041;-79
2024/04/06 03:01:08;;;;;;;3.50;1.80;;;;;;;8.22;88.99;100540.56;5067888;28;20051;-79
2024/04/06 03:03:33;;;;;;;4.35;2.20;;;;;;;7.90;89.78;100501.25;5056287;28;20033;-80
2024/04/06 03:05:59;;;;;;;4.80;2.22;;;;;;;7.90;90.69;100523.28;5046898;28;20028;-79
2024/04/06 03:08:24;;;;;;;6.53;2.20;;;;;;;7.97;89.56;100518.88;5048316;28;20033;-80
2024/04/06 03:10:49;;;;;;;6.43;3.13;;;;;;;7.84;88.54;100485.03;5057504;28;20024;-80
2024/04/06 03:13:15;;;;;;;5.63;2.33;;;;;;;8.48;84.20;100514.38;5058641;28;20037;-80
2024/04/06 03:15:40;;;;;;;5.45;2.30;;;;;;;8.18;86.48;100514.56;5047992;28;20410;-80
2024/04/06 03:18:06;;;;;;;4.78;2.15;;;;;;;8.13;89.08;100535.56;5047817;28;20519;-80
2024/04/06 03:20:31;;;;;;;5.72;2.80;;;;;;;8.03;89.98;100520.78;5046883;28;20025;-79
2024/04/06 03:23:01;;;;;;;33.72;14.80;;;;;;;7.89;90.05;100510.22;5048238;28;20051;-79
2024/04/06 03:25:27;;;;;;;22.95;10.65;;;;;;;8.23;89.04;100520.09;5048116;28;20044;-79
2024/04/06 03:27:53;;;;;;;38.22;19.23;;;;;;;8.24;88.73;100532.41;5063189;28;20040;-80
2024/04/06 03:30:18;;;;;;;51.85;23.25;;;;;;;8.77;85.67;100542.63;5063791;28;20048;-80
2024/04/06 03:32:44;;;;;;;44.30;18.98;;;;;;;8.94;84.75;100554.56;5046662;28;20475;-79
2024/04/06 03:35:09;;;;;;;22.70;10.55;;;;;;;8.44;85.95;100527.28;5047828;28;20118;-79
2024/04/06 03:37:34;;;;;;;24.30;10.55;;;;;;;8.12;88.45;100541.91;5047736;28;20361;-79
2024/04/06 03:40:01;;;;;;;28.13;11.68;;;;;;;8.38;86.04;100546.63;5047330;28;20025;-79
2024/04/06 03:42:26;;;;;;;23.48;8.77;;;;;;;8.98;82.88;100560.34;5047830;28;20021;-80
2024/04/06 03:44:52;;;;;;;14.85;7.28;;;;;;;8.48;84.83;100562.25;5047689;28;20036;-80
2024/04/06 03:47:17;;;;;;;11.70;5.13;;;;;;;8.27;86.07;100565.72;5047322;28;20075;-80
2024/04/06 03:49:42;;;;;;;11.15;4.68;;;;;;;7.78;89.86;100552.19;5047746;28;20039;-80
2024/04/06 03:52:08;;;;;;;14.68;4.82;;;;;;;7.64;90.78;100561.84;5050189;28;20029;-80
2024/04/06 03:54:34;;;;;;;15.07;4.70;;;;;;;7.74;90.15;100576.66;5047476;28;20040;-79
2024/04/06 03:56:59;;;;;;;10.18;4.35;;;;;;;7.54;92.50;100571.94;5047860;28;20017;-80
2024/04/06 03:59:25;;;;;;;10.05;3.58;;;;;;;7.63;90.35;100560.19;5047399;28;20036;-79
2024/04/06 04:01:50;;;;;;;9.95;3.60;;;;;;;8.23;85.46;100560.81;5046329;28;20071;-80
2024/04/06 04:04:16;;;;;;;9.88;4.00;;;;;;;7.88;89.50;100573.13;5047192;28;20029;-79
2024/04/06 04:06:41;;;;;;;8.35;3.67;;;;;;;7.94;90.44;100583.00;5047545;28;20075;-78
2024/04/06 04:09:07;;;;;;;10.50;3.58;;;;;;;7.91;89.97;100572.75;5047506;28;20490;-79
2024/04/06 04:11:32;;;;;;;9.57;3.28;;;;;;;7.64;92.23;100561.84;5047353;28;20044;-79
2024/04/06 04:13:57;;;;;;;8.60;3.40;;;;;;;7.81;92.85;100564.28;5047786;28;20028;-79
2024/04/06 04:16:23;;;;;;;9.63;3.75;;;;;;;8.15;89.94;100578.69;5047700;28;20029;-80
2024/04/06 04:18:48;;;;;;;10.85;3.28;;;;;;;7.56;93.40;100575.25;5047471;28;20113;-79
2024/04/06 04:21:13;;;;;;;5.65;2.60;;;;;;;7.34;97.38;100587.63;5051487;28;20100;-79
2024/04/06 04:23:39;;;;;;;9.10;3.00;;;;;;;7.73;95.68;100575.84;5051556;28;20017;-79
2024/04/06 04:26:05;;;;;;;8.30;3.50;;;;;;;7.77;93.16;100573.63;5051785;28;20056;-79
2024/04/06 04:28:30;;;;;;;7.45;3.22;;;;;;;8.08;91.37;100589.25;5051672;28;20112;-80
2024/04/06 04:30:56;;;;;;;7.63;3.28;;;;;;;8.32;88.87;100589.91;5053297;28;20049;-78
2024/04/06 04:33:21;;;;;;;8.77;3.22;;;;;;;7.40;96.03;100570.97;5051838;28;20040;-79
2024/04/06 04:35:46;;;;;;;7.85;3.40;;;;;;;7.35;99.85;100589.25;5051179;28;20106;-80
2024/04/06 04:38:12;;;;;;;6.90;3.28;;;;;;;7.04;100.00;100582.31;5060897;28;20017;-79
2024/04/06 04:40:38;;;;;;;6.43;2.80;;;;;;;7.29;100.00;100570.59;5071585;28;20155;-79
2024/04/06 04:43:04;;;;;;;9.20;3.60;;;;;;;8.37;94.36;100604.25;5052075;28;20097;-79
2024/04/06 04:45:30;;;;;;;6.57;4.05;;;;;;;7.97;97.12;100582.63;5053773;28;20117;-79
2024/04/06 04:47:55;;;;;;;12.20;4.53;;;;;;;8.14;97.16;100595.66;5057566;28;20020;-78
2024/04/06 04:50:21;;;;;;;18.55;5.38;;;;;;;8.54;94.16;100606.66;5071753;28;20024;-80
2024/04/06 04:52:46;;;;;;;11.13;4.10;;;;;;;8.68;93.08;100581.81;5059038;28;20044;-79
2024/04/06 04:55:11;;;;;;;9.93;4.38;;;;;;;8.90;91.96;100595.06;5062500;28;20436;-79
2024/04/06 04:57:37;;;;;;;8.13;4.05;;;;;;;9.00;90.36;100600.88;5062018;28;20029;-79
2024/04/06 05:00:03;;;;;;;10.18;4.40;;;;;;;9.17;88.95;100607.50;5061386;28;20099;-80
2024/04/06 05:02:28;;;;;;;10.25;4.70;;;;;;;9.49;86.03;100596.41;5060996;28;20063;-80
2024/04/06 05:04:53;;;;;;;10.60;4.88;;;;;;;9.79;84.85;100592.41;5057991;28;20025;-80
2024/04/06 05:07:19;;;;;;;10.13;4.80;;;;;;;10.44;80.52;100622.09;5059639;28;20479;-79
2024/04/06 05:09:46;;;;;;;8.23;5.15;;;;;;;10.89;77.62;100615.28;5059118;28;20040;-78
2024/04/06 05:12:12;;;;;;;9.77;5.15;;;;;;;10.37;78.96;100599.91;5058075;28;20526;-80
2024/04/06 05:14:38;;;;;;;9.07;5.00;;;;;;;10.31;80.67;100616.72;5057817;28;20036;-79
2024/04/06 05:17:03;;;;;;;11.05;5.00;;;;;;;10.44;79.70;100592.75;5057406;28;20025;-79
2024/04/06 05:19:29;;;;;;;9.98;5.38;;;;;;;10.34;79.45;100611.00;5056545;28;20116;-79
2024/04/06 05:21:54;;;;;;;10.02;4.95;;;;;;;10.98;77.84;100627.41;5059584;28;20046;-80
2024/04/06 05:24:19;;;;;;;8.20;4.60;;;;;;;11.26;75.73;100624.47;5057173;28;20112;-79
2024/04/06 05:26:45;;;;;;;9.93;4.80;;;;;;;11.61;73.56;100621.47;5058114;28;20153;-79
2024/04/06 05:29:11;;;;;;;8.40;5.15;;;;;;;11.51;75.83;100627.25;5065163;28;20037;-78
2024/04/06 05:31:37;;;;;;;8.73;4.65;;;;;;;11.77;73.53;100623.66;5070320;28;20044;-81
2024/04/06 05:34:04;;;;;;;7.93;4.25;;;;;;;12.18;70.73;100610.94;5052049;28;20037;-79
2024/04/06 05:36:29;;;;;;;9.05;4.40;;;;;;;11.96;73.38;100607.75;5051331;28;20147;-79
2024/04/06 05:38:55;;;;;;;6.22;4.10;;;;;;;12.11;72.08;100588.75;5051279;28;20059;-79
2024/04/06 05:41:20;;;;;;;10.40;4.63;;;;;;;12.10;72.97;100608.50;5051324;28;20017;-78
2024/04/06 05:43:46;;;;;;;9.13;4.07;;;;;;;11.74;72.01;100593.88;5050994;28;20316;-79
2024/04/06 05:46:11;;;;;;;239.13;121.65;;;;;;;12.83;68.82;100622.13;5050657;28;20021;-79
2024/04/06 05:48:38;;;;;;;12.35;5.47;;;;;;;12.85;68.65;100613.88;5048526;28;20483;-79
2024/04/06 05:51:03;;;;;;;8.98;4.22;;;;;;;12.51;68.94;100604.50;5049695;28;20035;-79
2024/04/06 05:53:29;;;;;;;8.00;3.55;;;;;;;12.91;66.07;100617.53;5045617;28;20037;-79
2024/04/06 05:55:54;;;;;;;6.40;3.33;;;;;;;12.64;65.21;100626.59;5048201;28;20021;-79
2024/04/06 05:58:20;;;;;;;6.70;3.70;;;;;;;12.73;64.07;100635.19;5050173;28;20466;-79
2024/04/06 06:00:45;;;;;;;8.02;3.83;;;;;;;12.65;65.00;100627.44;5049684;28;20112;-79
2024/04/06 06:03:11;;;;;;;8.98;3.70;;;;;;;12.99;65.24;100644.81;5048826;28;20032;-79
2024/04/06 06:05:37;;;;;;;7.47;3.70;;;;;;;13.56;64.33;100647.34;5049084;28;20998;-79
2024/04/06 06:08:03;;;;;;;6.53;3.30;;;;;;;13.82;63.82;100643.53;5049176;28;20493;-79
2024/04/06 06:10:28;;;;;;;8.88;3.90;;;;;;;13.89;63.21;100637.25;5048848;28;20119;-79
2024/04/06 06:12:54;;;;;;;7.57;3.60;;;;;;;14.06;63.19;100638.28;5048907;28;20033;-79
2024/04/06 06:15:19;;;;;;;8.13;3.67;;;;;;;14.05;62.74;100644.66;5049139;28;20463;-79
2024/04/06 06:17:44;;;;;;;6.00;3.58;;;;;;;14.36;63.07;100642.78;5048867;28;20471;-79
2024/04/06 06:20:10;;;;;;;8.40;4.47;;;;;;;14.46;62.10;100657.28;5050997;28;20036;-78
2024/04/06 06:22:35;;;;;;;8.98;4.72;;;;;;;14.39;65.25;100647.72;5048979;28;20125;-79
2024/04/06 06:25:02;;;;;;;26.40;5.13;;;;;;;14.39;62.46;100645.84;5068011;28;20036;-78
2024/04/06 06:27:28;;;;;;;7.05;3.63;;;;;;;14.22;63.34;100650.19;5048818;28;20021;-78
2024/04/06 06:29:54;;;;;;;8.80;3.53;;;;;;;14.45;62.60;100636.88;5048606;28;20044;-78
2024/04/06 06:32:19;;;;;;;6.13;3.22;;;;;;;14.57;61.68;100638.78;5048954;28;20032;-78
2024/04/06 06:34:45;;;;;;;5.20;2.88;;;;;;;15.07;60.14;100649.06;5048776;28;20033;-77
2024/04/06 06:37:11;;;;;;;6.45;2.85;;;;;;;15.14;62.00;100643.56;5049077;28;20060;-78
2024/04/06 06:39:36;;;;;;;5.88;3.15;;;;;;;15.45;60.22;100640.50;5045990;28;20028;-78
2024/04/06 06:42:02;;;;;;;4.90;2.97;;;;;;;15.61;58.19;100628.19;5048550;28;20108;-78
2024/04/06 06:44:28;;;;;;;6.30;3.05;;;;;;;15.46;58.91;100630.56;5048869;28;20110;-78
2024/04/06 06:46:54;;;;;;;6.95;2.80;;;;;;;15.69;57.79;100643.13;5048488;28;20452;-79
2024/04/06 06:49:20;;;;;;;6.43;3.17;;;;;;;15.69;57.47;100597.41;5049125;28;20025;-79
2024/04/06 06:51:46;;;;;;;6.57;2.50;;;;;;;16.21;58.67;100631.50;5048656;28;20250;-78
2024/04/06 06:54:12;;;;;;;6.13;2.42;;;;;;;16.38;56.74;100631.50;5048502;28;20148;-79
2024/04/06 06:56:37;;;;;;;7.43;3.08;;;;;;;16.11;57.97;100639.38;5048423;28;20056;-79
2024/04/06 06:59:02;;;;;;;4.85;2.25;;;;;;;15.72;58.34;100605.03;5048532;28;20029;-79
2024/04/06 07:01:28;;;;;;;6.75;2.80;;;;;;;16.07;59.52;100637.16;5048092;28;20029;-79
2024/04/06 07:03:53;;;;;;;4.95;2.17;;;;;;;16.52;56.08;100638.19;5049595;28;20031;-79
2024/04/06 07:06:19;;;;;;;5.15;2.35;;;;;;;17.05;54.90;100633.38;5049360;28;20039;-79
2024/04/06 07:08:45;;;;;;;6.97;2.40;;;;;;;17.37;53.00;100652.44;5048199;28;20112;-79
2024/04/06 07:11:11;;;;;;;6.68;2.50;;;;;;;17.34;55.32;100649.41;5047294;28;20032;-78
2024/04/06 07:13:37;;;;;;;4.82;2.30;;;;;;;17.68;52.34;100656.31;5047143;28;20025;-79
2024/04/06 07:16:12;;;;;;;7.15;2.80;;;;;;;17.78;54.07;100657.53;5047357;28;20039;-79
2024/04/06 07:18:38;;;;;;;6.43;2.33;;;;;;;17.78;56.08;100657.53;5047474;28;20108;-79
2024/04/06 07:21:06;;;;;;;7.05;3.72;;;;;;;18.15;52.49;100636.06;5045605;28;20202;-80
2024/04/06 07:23:31;;;;;;;5.25;2.45;;;;;;;18.06;52.31;100640.28;5047536;28;20699;-79
2024/04/06 07:25:57;;;;;;;8.10;3.88;;;;;;;17.92;53.85;100649.84;5047170;28;20064;-79
2024/04/06 07:28:22;;;;;;;8.48;3.10;;;;;;;18.16;52.70;100656.59;5042318;28;20036;-79
2024/04/06 07:30:48;;;;;;;7.22;3.03;;;;;;;18.03;52.85;100641.63;5045475;28;20406;-78
2024/04/06 07:33:14;;;;;;;6.13;3.00;;;;;;;18.18;52.17;100659.84;5048021;28;20019;-80
2024/04/06 07:35:39;;;;;;;6.07;3.30;;;;;;;18.09;58.04;100655.19;5045215;28;20032;-79
2024/04/06 07:38:05;;;;;;;8.10;3.03;;;;;;;18.62;49.10;100658.91;5047728;28;20074;-79
2024/04/06 07:40:31;;;;;;;5.70;2.50;;;;;;;18.39;46.33;100663.56;5047065;28;20163;-79
2024/04/06 07:42:57;;;;;;;4.80;2.00;;;;;;;18.73;46.34;100636.28;5047312;28;20391;-79
2024/04/06 07:45:22;;;;;;;3.95;1.90;;;;;;;19.09;46.40;100650.06;5047060;28;20383;-79
2024/04/06 07:47:48;;;;;;;8.07;2.05;;;;;;;18.68;48.94;100653.28;5047315;28;20532;-79
2024/04/06 07:50:14;;;;;;;3.85;1.77;;;;;;;19.02;46.81;100652.19;5047408;28;20444;-79
2024/04/06 07:52:40;;;;;;;6.22;1.70;;;;;;;19.24;47.30;100641.22;5047503;28;20541;-79
2024/04/06 07:55:05;;;;;;;3.47;1.38;;;;;;;19.30;42.25;100631.25;5046141;28;20123;-79
2024/04/06 07:57:31;;;;;;;4.43;1.50;;;;;;;19.72;42.32;100658.25;5047287;28;20112;-79
2024/04/06 07:59:57;;;;;;;3.28;1.60;;;;;;;20.00;42.70;100640.75;5047145;28;20021;-80
2024/04/06 08:02:23;;;;;;;4.63;1.50;;;;;;;20.03;43.05;100637.50;5045312;28;20086;-79
2024/04/06 08:04:50;;;;;;;4.00;1.52;;;;;;;20.27;42.34;100653.25;5047063;28;20017;-79
2024/04/06 08:07:16;;;;;;;2.92;1.85;;;;;;;19.93;43.14;100645.59;5046940;28;20736;-80
2024/04/06 08:09:41;;;;;;;2.97;1.27;;;;;;;19.96;43.59;100618.00;5047082;28;20033;-78
2024/04/06 08:12:07;;;;;;;5.88;1.20;;;;;;;20.11;40.17;100638.06;5061965;28;20082;-79
2024/04/06 08:14:32;;;;;;;2.85;1.30;;;;;;;20.24;40.24;100621.28;5063107;28;20021;-80
2024/04/06 08:16:57;;;;;;;6.20;1.80;;;;;;;20.11;39.40;100628.03;5045909;28;20464;-79
2024/04/06 08:19:23;;;;;;;16.80;5.93;;;;;;;20.52;40.98;100635.38;5047499;28;20094;-79
2024/04/06 08:21:49;;;;;;;5.00;1.50;;;;;;;20.20;39.75;100633.72;5047079;28;20033;-79
2024/04/06 08:24:16;;;;;;;3.40;1.20;;;;;;;20.40;41.06;100627.50;5046876;28;20025;-79
2024/04/06 08:26:43;;;;;;;4.57;1.63;;;;;;;20.38;42.37;100635.09;5045691;28;20039;-80
2024/04/06 08:29:09;;;;;;;5.07;1.40;;;;;;;20.69;41.45;100614.25;5047742;28;20501;-79
2024/04/06 08:31:34;;;;;;;5.88;1.50;;;;;;;20.78;41.44;100609.06;5047182;28;20045;-80
2024/04/06 08:33:59;;;;;;;3.88;1.52;;;;;;;20.85;41.88;100602.28;5047175;28;20074;-80
2024/04/06 08:36:25;;;;;;;2.35;1.50;;;;;;;21.01;41.06;100611.22;5046848;28;20036;-79
2024/04/06 08:38:50;;;;;;;3.45;1.40;;;;;;;21.30;41.95;100612.47;5055759;28;20446;-79
2024/04/06 08:41:18;;;;;;;3.80;1.73;;;;;;;21.32;41.05;100607.59;5060737;28;20037;-78
2024/04/06 08:43:44;;;;;;;5.18;1.90;;;;;;;21.52;41.01;100602.09;5045743;28;20029;-79
2024/04/06 08:46:09;;;;;;;3.45;1.63;;;;;;;21.37;40.34;100591.28;5045261;28;20025;-80
2024/04/06 08:48:35;;;;;;;2.97;1.35;;;;;;;21.59;38.63;100594.44;5043916;28;20103;-79
2024/04/06 08:51:03;;;;;;;3.83;1.23;;;;;;;21.73;35.79;100604.72;5046882;28;20021;-78
2024/04/06 08:53:29;;;;;;;2.38;1.17;;;;;;;21.66;35.91;100577.88;5046821;28;20037;-78
2024/04/06 08:55:55;;;;;;;2.85;1.70;;;;;;;22.06;36.60;100598.50;5045379;28;20112;-78
2024/04/06 08:58:21;;;;;;;2.67;1.48;;;;;;;22.25;35.64;100584.25;5046648;28;20041;-79
2024/04/06 09:00:49;;;;;;;5.25;1.67;;;;;;;22.22;37.53;100590.25;5045488;28;20045;-79
2024/04/06 09:03:14;;;;;;;;;;;;;;;22.19;37.95;100586.22;5040531;28;20071;-79
2024/04/06 09:05:43;;;;;;;3.97;1.50;;;;;;;22.31;37.43;100583.13;5047540;28;19948;-79
2024/04/06 09:08:16;;;;;;;3.70;1.50;;;;;;;22.53;35.77;100573.72;5050174;28;20029;-78
2024/04/06 09:10:42;;;;;;;6.78;1.70;;;;;;;22.66;36.53;100578.50;5030378;28;20029;-79
2024/04/06 09:13:08;;;;;;;3.78;1.30;;;;;;;22.94;35.11;100551.53;5045570;28;20691;-78
2024/04/06 09:15:33;;;;;;;3.17;1.17;;;;;;;22.95;31.83;100569.47;5050030;28;20400;-78
2024/04/06 09:17:59;;;;;;;4.18;1.35;;;;;;;23.40;32.26;100575.50;5049844;28;20029;-80
2024/04/06 09:20:25;;;;;;;3.58;1.50;;;;;;;23.17;34.09;100571.69;5047681;28;20040;-79
2024/04/06 09:22:54;;;;;;;5.80;1.60;;;;;;;23.42;33.54;100568.66;5048489;28;20037;-79
2024/04/06 09:25:22;;;;;;;6.57;1.70;;;;;;;23.43;34.62;100566.72;5048451;28;20087;-79
2024/04/06 09:27:47;;;;;;;;;;;;;;;23.50;34.13;100564.47;5050413;28;20098;-79
2024/04/06 09:30:13;;;;;;;4.63;1.63;;;;;;;23.67;34.96;100553.84;5047969;28;19917;-79
2024/04/06 09:32:43;;;;;;;3.40;1.70;;;;;;;24.34;34.26;100560.22;5048488;28;20052;-78
2024/04/06 09:35:10;;;;;;;3.40;1.50;;;;;;;24.61;32.09;100562.22;5048030;28;20032;-78
2024/04/06 09:37:39;;;;;;;4.43;1.50;;;;;;;24.65;31.21;100549.59;5048177;28;20029;-79
2024/04/06 09:40:10;;;;;;;5.85;1.50;;;;;;;24.50;32.43;100553.41;5045272;28;20033;-79
2024/04/06 09:42:37;;;;;;;3.38;1.60;;;;;;;24.88;30.80;100560.59;5049131;28;20249;-78
2024/04/06 09:45:05;;;;;;;4.10;1.30;;;;;;;25.04;30.92;100553.72;5048745;28;20035;-78
2024/04/06 09:47:32;;;;;;;3.55;1.27;;;;;;;24.83;32.29;100545.97;5048655;28;20451;-78
2024/04/06 09:50:00;;;;;;;2.67;1.37;;;;;;;24.80;31.25;100541.09;5049161;28;20514;-79
2024/04/06 09:52:26;;;;;;;3.20;1.20;;;;;;;25.15;30.44;100544.25;5048800;28;21072;-79
2024/04/06 09:54:53;;;;;;;3.88;1.30;;;;;;;25.23;31.27;100538.09;5049521;28;20405;-79
2024/04/06 09:57:19;;;;;;;4.28;1.38;;;;;;;25.07;32.82;100517.66;5036244;28;20121;-79
2024/04/06 09:59:45;;;;;;;3.17;1.48;;;;;;;25.32;29.49;100512.81;5041655;28;20021;-80
2024/04/06 10:02:21;;;;;;;8.95;1.90;;;;;;;25.43;31.57;100525.09;5048885;28;20051;-77
2024/04/06 10:04:53;;;;;;;2.90;1.40;;;;;;;25.42;31.37;100518.84;5041501;28;20547;-79
2024/04/06 10:07:26;;;;;;;5.28;1.60;;;;;;;25.51;30.12;100513.44;5049048;28;20119;-80
2024/04/06 10:10:08;;;;;;;3.42;1.50;;;;;;;25.92;30.81;100498.84;5049298;28;20463;-79
2024/04/06 10:12:51;;;;;;;4.30;1.40;;;;;;;26.16;31.37;100508.63;5049198;28;20516;-79
2024/04/06 10:15:21;;;;;;;5.30;1.30;;;;;;;25.85;31.45;100496.50;5048872;28;20033;-79
2024/04/06 10:17:52;;;;;;;3.15;1.55;;;;;;;26.18;30.06;100490.00;5041387;28;20053;-80
2024/04/06 10:20:22;;;;;;;4.65;1.40;;;;;;;26.28;32.69;100491.66;5043895;28;20032;-81
2024/04/06 10:22:53;;;;;;;5.40;1.55;;;;;;;26.43;29.29;100493.97;5049667;28;20033;-78
2024/04/06 10:25:26;;;;;;;7.82;4.15;;;;;;;26.31;28.98;100472.69;5048723;28;20112;-80
2024/04/06 10:28:04;;;;;;;4.18;1.75;;;;;;;26.15;30.26;100496.06;5054311;28;20967;-80
2024/04/06 10:30:31;;;;;;;4.50;1.42;;;;;;;26.77;30.05;100489.78;5047184;28;20072;-79
2024/04/06 10:32:57;;;;;;;5.78;1.27;;;;;;;26.34;30.45;100450.19;5049670;28;20557;-79
2024/04/06 10:35:23;;;;;;;3.22;1.30;;;;;;;26.91;29.40;100486.91;5048897;28;20036;-77
2024/04/06 10:37:48;;;;;;;5.70;1.70;;;;;;;26.55;29.83;100460.56;5049509;28;20029;-79
2024/04/06 10:40:14;;;;;;;3.38;1.73;;;;;;;26.73;29.26;100477.88;5050866;28;20090;-80
2024/04/06 10:42:40;;;;;;;4.70;2.05;;;;;;;26.79;29.95;100471.13;5049051;28;20029;-79
2024/04/06 10:45:08;;;;;;;3.35;1.40;;;;;;;27.03;29.68;100479.69;5047408;28;20039;-78
2024/04/06 10:47:34;;;;;;;3.63;1.27;;;;;;;27.16;28.40;100467.00;5048093;28;20029;-79
2024/04/06 10:49:59;;;;;;;4.45;1.70;;;;;;;27.11;29.52;100453.44;5048270;28;20470;-79
2024/04/06 10:52:25;;;;;;;3.83;1.38;;;;;;;27.49;28.52;100454.78;5048430;28;20482;-81
2024/04/06 10:54:51;;;;;;;3.97;1.60;;;;;;;27.73;28.48;100454.28;5049434;28;20033;-79
2024/04/06 10:57:17;;;;;;;3.28;1.23;;;;;;;27.72;27.79;100436.22;5048175;28;20529;-80
2024/04/06 10:59:42;;;;;;;2.50;1.10;;;;;;;27.95;26.16;100434.09;5046944;28;20037;-79
2024/04/06 11:02:08;;;;;;;3.90;1.30;;;;;;;27.88;26.53;100434.59;5048055;28;20025;-78
2024/04/06 11:04:40;;;;;;;2.95;1.20;;;;;;;27.87;26.91;100421.22;5046997;28;21715;-79
2024/04/06 11:07:06;;;;;;;4.80;1.08;;;;;;;27.99;26.10;100413.94;5046157;28;20083;-79
2024/04/06 11:09:32;;;;;;;3.25;1.15;;;;;;;27.72;27.60;100397.84;5047419;28;20041;-79
2024/04/06 11:11:58;;;;;;;3.58;1.30;;;;;;;27.85;26.21;100402.34;5048496;28;20059;-79
2024/04/06 11:14:26;;;;;;;3.40;1.10;;;;;;;28.03;26.00;100403.09;5050360;28;20037;-80
2024/04/06 11:16:55;;;;;;;6.22;1.33;;;;;;;28.05;25.83;100407.16;5045658;28;20577;-79
2024/04/06 11:19:20;;;;;;;3.70;1.13;;;;;;;28.08;26.26;100391.97;5045564;28;20417;-79
2024/04/06 11:21:46;;;;;;;2.78;1.20;;;;;;;28.45;25.59;100412.25;5049865;28;20541;-78